createdAt,value
2022-11-20T00:00:52.721Z,7.50
2022-11-20T00:05:36.273Z,3.43
2022-11-20T00:10:19.719Z,3.17
2022-11-20T00:15:04.992Z,3.23
2022-11-20T00:19:48.405Z,3.80
2022-11-20T00:24:31.821Z,2.90
2022-11-20T00:29:15.435Z,6.10
2022-11-20T00:34:00.352Z,3.33
2022-11-20T00:38:44.372Z,3.93
2022-11-20T00:43:28.156Z,2.67
2022-11-20T00:48:11.756Z,6.83
2022-11-20T00:52:56.676Z,7.93
2022-11-20T00:57:40.186Z,8.17
2022-11-20T01:02:23.670Z,8.70
2022-11-20T01:07:07.460Z,10.07
2022-11-20T01:11:52.418Z,8.33
2022-11-20T01:16:37.554Z,6.93
2022-11-20T01:21:22.796Z,4.50
2022-11-20T01:26:07.883Z,6.10
2022-11-20T01:30:52.768Z,5.33
2022-11-20T01:35:36.404Z,5.23
2022-11-20T01:40:19.963Z,7.13
2022-11-20T01:45:03.702Z,9.13
2022-11-20T01:49:53.083Z,7.90
2022-11-20T01:54:41.560Z,8.13
2022-11-20T01:59:26.863Z,8.37
2022-11-20T02:04:12.128Z,8.17
2022-11-20T02:08:57.670Z,5.20
2022-11-20T02:13:47.516Z,6.23
2022-11-20T02:18:32.227Z,6.80
2022-11-20T02:23:22.840Z,7.17
2022-11-20T02:28:08.096Z,8.20
2022-11-20T02:32:51.555Z,9.20
2022-11-20T02:37:38.588Z,11.50
2022-11-20T02:42:22.082Z,9.23
2022-11-20T02:47:07.147Z,6.53
2022-11-20T02:51:50.589Z,10.03
2022-11-20T02:56:34.090Z,11.87
2022-11-20T03:01:17.628Z,9.83
2022-11-20T03:06:02.814Z,7.57
2022-11-20T03:10:46.269Z,7.30
2022-11-20T03:15:29.793Z,11.83
2022-11-20T03:20:13.986Z,9.43
2022-11-20T03:24:58.874Z,7.43
2022-11-20T03:29:42.309Z,7.77
2022-11-20T03:34:25.857Z,5.47
2022-11-20T03:39:09.362Z,8.23
2022-11-20T03:43:56.023Z,5.23
2022-11-20T03:48:39.412Z,4.57
2022-11-20T03:53:22.862Z,5.60
2022-11-20T03:58:06.349Z,2.57
2022-11-20T04:02:51.120Z,2.10
2022-11-20T04:07:36.775Z,2.10
2022-11-20T04:12:20.288Z,1.43
2022-11-20T04:17:03.745Z,1.50
2022-11-20T04:21:48.814Z,4.70
2022-11-20T04:26:32.892Z,2.23
2022-11-20T04:31:18.191Z,1.67
2022-11-20T04:36:07.699Z,1.47
2022-11-20T04:40:52.535Z,1.53
2022-11-20T04:45:35.951Z,2.20
2022-11-20T04:50:19.360Z,2.07
2022-11-20T04:55:02.777Z,0.60
2022-11-20T04:59:47.726Z,1.57
2022-11-20T05:04:31.201Z,3.73
2022-11-20T05:09:14.717Z,2.33
2022-11-20T05:14:00.480Z,3.23
2022-11-20T05:18:45.949Z,2.03
2022-11-20T05:23:31.242Z,1.47
2022-11-20T05:28:15.215Z,1.13
2022-11-20T05:32:58.666Z,1.93
2022-11-20T05:37:43.534Z,3.57
2022-11-20T05:42:33.120Z,1.80
2022-11-20T05:47:16.684Z,2.50
2022-11-20T05:52:00.199Z,7.77
2022-11-20T05:56:44.992Z,13.90
2022-11-20T06:01:28.860Z,2.03
2022-11-20T06:06:12.371Z,1.43
2022-11-20T06:10:55.779Z,1.77
2022-11-20T06:15:40.640Z,1.30
2022-11-20T06:20:24.452Z,2.40
2022-11-20T06:25:08.277Z,3.27
2022-11-20T06:29:51.825Z,1.83
2022-11-20T06:34:36.696Z,2.10
2022-11-20T06:39:20.632Z,2.57
2022-11-20T06:44:05.883Z,4.50
2022-11-20T06:48:50.156Z,1.77
2022-11-20T06:53:35.712Z,4.23
2022-11-20T06:58:20.149Z,3.83
2022-11-20T07:03:05.784Z,4.50
2022-11-20T07:07:49.225Z,16.60
2022-11-20T07:12:34.132Z,7.73
2022-11-20T07:17:17.758Z,4.60
2022-11-20T07:22:01.293Z,7.60
2022-11-20T07:26:44.769Z,5.43
2022-11-20T07:31:29.650Z,8.33
2022-11-20T07:36:13.167Z,8.77
2022-11-20T07:40:58.826Z,6.93
2022-11-20T07:45:42.369Z,4.03
2022-11-20T07:50:27.352Z,6.47
2022-11-20T07:55:12.348Z,5.60
2022-11-20T07:59:55.821Z,7.07
2022-11-20T08:04:39.357Z,7.17
2022-11-20T08:09:24.193Z,6.00
2022-11-20T08:14:14.154Z,12.30
2022-11-20T08:18:58.680Z,6.43
2022-11-20T08:23:42.729Z,4.97
2022-11-20T08:28:31.000Z,6.77
2022-11-20T08:33:14.815Z,4.50
2022-11-20T08:37:58.665Z,4.67
2022-11-20T08:42:49.688Z,7.30
2022-11-20T08:47:34.544Z,5.00
2022-11-20T08:52:18.345Z,6.47
2022-11-20T08:57:02.086Z,8.10
2022-11-20T09:01:48.158Z,4.67
2022-11-20T09:06:33.063Z,5.03
2022-11-20T09:11:16.604Z,4.23
2022-11-20T09:16:00.965Z,7.20
2022-11-20T09:20:45.424Z,4.27
2022-11-20T09:25:30.481Z,6.03
2022-11-20T09:30:15.137Z,3.90
2022-11-20T09:34:58.852Z,3.67
2022-11-20T09:39:42.735Z,5.63
2022-11-20T09:45:02.166Z,5.23
2022-11-20T09:50:03.409Z,4.10
2022-11-20T09:54:47.435Z,3.90
2022-11-20T09:59:38.724Z,2.43
2022-11-20T10:04:23.813Z,4.77
2022-11-20T10:09:25.019Z,2.20
2022-11-20T10:14:19.282Z,3.83
2022-11-20T10:19:17.729Z,4.30
2022-11-20T10:24:36.159Z,3.67
2022-11-20T10:29:22.125Z,4.33
2022-11-20T10:34:16.917Z,3.73
2022-11-20T10:39:09.335Z,4.57
2022-11-20T10:44:04.349Z,2.30
2022-11-20T10:48:49.033Z,2.47
2022-11-20T10:53:59.160Z,2.23
2022-11-20T10:58:54.906Z,4.40
2022-11-20T11:03:39.978Z,3.90
2022-11-20T11:08:24.038Z,33.30
2022-11-20T11:13:07.792Z,6.67
2022-11-20T11:17:51.340Z,3.00
2022-11-20T11:22:46.003Z,5.60
2022-11-20T11:27:30.078Z,2.90
2022-11-20T11:32:15.872Z,0.93
2022-11-20T11:37:01.155Z,1.13
2022-11-20T11:41:46.385Z,0.70
2022-11-20T11:46:34.315Z,2.00
2022-11-20T11:51:23.572Z,1.83
2022-11-20T11:56:12.282Z,1.80
2022-11-20T12:01:04.731Z,1.40
2022-11-20T12:05:51.848Z,2.27
2022-11-20T12:10:46.915Z,2.70
2022-11-20T12:15:33.731Z,0.30
2022-11-20T12:20:20.072Z,1.17
2022-11-20T12:25:10.276Z,2.53
2022-11-20T12:30:02.003Z,2.30
2022-11-20T12:34:58.129Z,1.13
2022-11-20T12:39:49.372Z,1.73
2022-11-20T12:45:11.772Z,3.13
2022-11-20T12:50:05.315Z,2.40
2022-11-20T12:55:13.067Z,1.70
2022-11-20T13:00:12.180Z,2.10
2022-11-20T13:05:12.838Z,4.23
2022-11-20T13:09:59.446Z,4.13
2022-11-20T13:14:49.057Z,2.93
2022-11-20T13:19:33.855Z,3.17
2022-11-20T13:24:27.963Z,2.80
2022-11-20T13:29:18.843Z,1.57
2022-11-20T13:34:04.369Z,2.15
2022-11-20T13:38:51.248Z,1.83
2022-11-20T13:43:41.252Z,2.55
2022-11-20T13:48:31.432Z,1.10
2022-11-20T13:53:32.409Z,2.55
2022-11-20T13:58:39.518Z,1.83
2022-11-20T14:03:51.129Z,3.33
2022-11-20T14:08:40.078Z,1.25
2022-11-20T14:13:25.463Z,1.17
2022-11-20T14:18:16.827Z,0.73
2022-11-20T14:23:04.311Z,1.70
2022-11-20T14:27:55.343Z,2.60
2022-11-20T14:32:40.144Z,2.17
2022-11-20T14:37:28.051Z,2.05
2022-11-20T14:42:20.107Z,2.10
2022-11-20T14:47:10.588Z,2.35
2022-11-20T14:52:04.391Z,1.90
2022-11-20T14:56:58.311Z,2.20
2022-11-20T15:02:03.018Z,1.47
2022-11-20T15:06:53.439Z,4.57
2022-11-20T15:11:38.717Z,1.80
2022-11-20T15:16:24.835Z,1.60
2022-11-20T15:21:16.252Z,1.27
2022-11-20T15:26:01.296Z,2.30
2022-11-20T15:30:45.963Z,3.27
2022-11-20T15:35:30.775Z,2.83
2022-11-20T15:40:18.122Z,11.80
2022-11-20T15:45:02.963Z,12.53
2022-11-20T15:49:48.084Z,11.67
2022-11-20T15:54:38.387Z,9.07
2022-11-20T15:59:25.209Z,7.70
2022-11-20T16:04:13.250Z,8.80
2022-11-20T16:08:58.364Z,7.77
2022-11-20T16:14:00.638Z,5.07
2022-11-20T16:18:48.382Z,5.43
2022-11-20T16:23:33.856Z,7.43
2022-11-20T16:28:19.318Z,6.30
2022-11-20T16:33:05.356Z,6.63
2022-11-20T16:37:52.311Z,7.97
2022-11-20T16:42:37.674Z,5.93
2022-11-20T16:47:22.990Z,6.07
2022-11-20T16:52:11.238Z,10.47
2022-11-20T16:56:57.659Z,10.77
2022-11-20T17:01:43.879Z,9.93
2022-11-20T17:06:30.065Z,7.20
2022-11-20T17:11:18.456Z,11.63
2022-11-20T17:16:07.867Z,11.93
2022-11-20T17:20:55.874Z,6.60
2022-11-20T17:25:42.542Z,7.80
2022-11-20T17:30:29.773Z,8.00
2022-11-20T17:35:16.702Z,8.20
2022-11-20T17:40:01.894Z,10.37
2022-11-20T17:44:47.191Z,12.70
2022-11-20T17:49:32.400Z,10.30
2022-11-20T17:54:19.428Z,8.77
2022-11-20T17:59:07.804Z,6.43
2022-11-20T18:03:52.861Z,6.57
2022-11-20T18:08:37.159Z,5.93
2022-11-20T18:13:47.585Z,5.27
2022-11-20T18:18:33.370Z,5.13
2022-11-20T18:23:18.634Z,5.57
2022-11-20T18:28:03.818Z,3.87
2022-11-20T18:33:00.605Z,3.73
2022-11-20T18:37:46.510Z,4.07
2022-11-20T18:42:48.441Z,6.47
2022-11-20T18:47:40.817Z,5.77
2022-11-20T18:52:29.229Z,6.43
2022-11-20T18:57:15.866Z,7.43
2022-11-20T19:02:00.730Z,11.97
2022-11-20T19:06:47.086Z,12.83
2022-11-20T19:11:34.136Z,9.43
2022-11-20T19:16:21.450Z,8.20
2022-11-20T19:21:12.247Z,8.17
2022-11-20T19:26:02.707Z,8.17
2022-11-20T19:30:48.503Z,8.40
2022-11-20T19:35:33.793Z,8.27
2022-11-20T19:40:19.202Z,12.17
2022-11-20T19:45:07.068Z,9.87
2022-11-20T19:49:54.699Z,11.90
2022-11-20T19:54:39.661Z,15.67
2022-11-20T19:59:26.363Z,18.17
2022-11-20T20:04:11.528Z,16.20
2022-11-20T20:09:04.768Z,15.70
2022-11-20T20:13:49.608Z,12.90
2022-11-20T20:18:36.006Z,13.83
2022-11-20T20:23:24.365Z,13.80
2022-11-20T20:28:11.095Z,14.20
2022-11-20T20:32:56.675Z,12.03
2022-11-20T20:37:41.809Z,12.97
2022-11-20T20:42:26.973Z,10.90
2022-11-20T20:47:13.451Z,10.60
2022-11-20T20:51:59.156Z,10.10
2022-11-20T20:56:45.132Z,13.13
2022-11-20T21:01:31.997Z,8.70
2022-11-20T21:06:18.572Z,11.97
2022-11-20T21:11:04.323Z,7.97
2022-11-20T21:15:49.176Z,5.50
2022-11-20T21:20:51.782Z,6.03
2022-11-20T21:25:40.523Z,5.23
2022-11-20T21:30:24.192Z,5.87
2022-11-20T21:35:10.467Z,3.93
2022-11-20T21:39:54.771Z,1.80
2022-11-20T21:44:40.554Z,1.77
2022-11-20T21:49:24.324Z,2.57
2022-11-20T21:54:11.115Z,1.47
2022-11-20T21:58:56.166Z,1.70
2022-11-20T22:03:41.951Z,3.67
2022-11-20T22:08:25.959Z,1.77
2022-11-20T22:13:26.028Z,1.20
2022-11-20T22:18:15.048Z,3.00
2022-11-20T22:23:02.461Z,1.83
2022-11-20T22:27:47.917Z,2.33
2022-11-20T22:32:31.373Z,2.60
2022-11-20T22:37:14.918Z,2.00
2022-11-20T22:42:01.860Z,1.00
2022-11-20T22:46:45.295Z,1.20
2022-11-20T22:51:30.012Z,1.00
2022-11-20T22:56:14.582Z,1.60
2022-11-20T23:01:08.152Z,2.67
2022-11-20T23:05:51.609Z,1.37
2022-11-20T23:10:35.151Z,1.47
2022-11-20T23:15:18.743Z,3.10
2022-11-20T23:20:03.664Z,0.50
2022-11-20T23:24:47.120Z,0.90
2022-11-20T23:29:30.714Z,1.63
2022-11-20T23:34:14.235Z,0.90
2022-11-20T23:38:59.270Z,1.13
2022-11-20T23:43:42.846Z,1.90
2022-11-20T23:48:29.470Z,0.40
2022-11-20T23:53:14.400Z,0.70
2022-11-20T23:57:59.587Z,0.23
